Flight Track Log - Related Links

Times and Time Zones

All times are in EDT time to prevent confusion due to time zone crossing. See the EJA831 flight status page for this flight to view local times or setup timezone preferences in your user account.

Time Position Orientation Groundspeed Altitude Reporting Facility
EDT Latitude Longitude Course Direction KTS MPH feet Rate Location/Type
Mon 02:28:12 PM 29.9956 -90.2794 281° West 158 182 600  Level Houston Center
Mon 02:28:44 PM 30.0000 -90.3047 281° West 210 242 1,900 2,936 Climbing Houston Center
Mon 02:29:46 PM 30.0539 -90.3331 336° Northwest 289 333 5,200 3,871 Climbing Houston Center
Mon 02:30:48 PM 30.1242 -90.2561 43° Northeast 286 329 9,900 3,919 Climbing Houston Center
Mon 02:31:50 PM 30.1878 -90.1975 39° Northeast 289 333 13,300 3,097 Climbing Houston Center
Mon 02:32:52 PM 30.2503 -90.1306 43° Northeast 302 348 16,300 2,439 Climbing Houston Center
Mon 02:33:53 PM 30.3147 -90.0544 46° Northeast 326 375 18,300 2,098 Climbing Houston Center
Mon 02:34:55 PM 30.3803 -89.9722 47° Northeast 343 395 20,600 2,177 Climbing Houston Center
Mon 02:35:57 PM 30.4478 -89.8894 47° Northeast 346 398 22,800 1,984 Climbing Houston Center
Mon 02:36:59 PM 30.5169 -89.8056 46° Northeast 352 405 24,700 1,839 Climbing Houston Center
Mon 02:38:01 PM 30.5844 -89.7219 47° Northeast 353 406 26,600 1,597 Climbing Houston Center
Mon 02:39:03 PM 30.6531 -89.6339 48° Northeast 363 418 28,000 1,500 Climbing Houston Center
Mon 02:40:05 PM 30.7356 -89.5231 49° Northeast 376 433 29,700 1,463 Climbing Houston Center
Mon 02:41:06 PM 30.8042 -89.4289 50° Northeast 380 437 31,000 1,268 Climbing Houston Center
Mon 02:42:08 PM 30.8714 -89.3322 51° Northeast 384 442 32,300 1,403 Climbing Houston Center
Mon 02:43:10 PM 30.9361 -89.2328 53° Northeast 385 443 33,900 1,548 Climbing Houston Center
Mon 02:44:12 PM 31.0042 -89.1425 49° Northeast 374 430 35,500 1,355 Climbing Houston Center
Mon 02:45:14 PM 31.0939 -89.0844 29° Northeast 368 423 36,700 726 Climbing Houston Center
Mon 02:46:16 PM 31.1800 -89.0111 36° Northeast 380 437 37,000 146 Climbing Houston Center
Mon 02:47:17 PM 31.2847 -88.9267 35° Northeast 409 471 37,000  Level Houston Center
Mon 02:48:19 PM 31.3822 -88.8461 35° Northeast 423 487 37,000  Level Houston Center
Mon 02:49:21 PM 31.4692 -88.7492 44° Northeast 432 497 37,000  Level Houston Center
Mon 02:50:23 PM 31.5475 -88.6525 46° Northeast 409 471 37,000  Level Houston Center
Mon 02:52:07 PM 31.7194 -88.5211 33° Northeast 393 452 37,000  Level Atlanta Center
Mon 02:53:07 PM 31.8097 -88.4547 32° Northeast 387 445 37,000 -50 Level Atlanta Center
Mon 02:54:07 PM 31.9039 -88.3858 32° Northeast 387 445 36,900 -50 Descending Atlanta Center
Mon 02:55:07 PM 31.9939 -88.3169 33° Northeast 387 445 36,900 50 Level Atlanta Center
Mon 02:56:07 PM 32.0858 -88.2528 31° Northeast 387 445 37,000 50 Climbing Atlanta Center
Mon 02:57:07 PM 32.1678 -88.1731 39° Northeast 382 440 37,000  Level Atlanta Center
Mon 02:58:07 PM 32.2497 -88.0933 39° Northeast 382 440 37,000  Level Atlanta Center
Mon 02:59:07 PM 32.3339 -88.0086 40° Northeast 382 440 37,000  Level Atlanta Center
Mon 03:00:07 PM 32.4181 -87.9289 39° Northeast 387 445 37,000  Level Atlanta Center
Mon 03:01:07 PM 32.4892 -87.8483 44° Northeast 387 445 37,000  Level Atlanta Center
Mon 03:02:07 PM 32.5753 -87.7633 40° Northeast 387 445 37,000  Level Atlanta Center
Mon 03:03:07 PM 32.6572 -87.6803 40° Northeast 393 452 37,000  Level Atlanta Center
Mon 03:04:07 PM 32.7553 -87.6128 30° Northeast 398 458 37,000  Level Atlanta Center
Mon 03:05:07 PM 32.8486 -87.5597 26° Northeast 389 448 37,000  Level Atlanta Center
Mon 03:06:07 PM 32.9483 -87.5019 26° Northeast 383 441 37,000  Level Atlanta Center
Mon 03:07:07 PM 33.0397 -87.4411 29° Northeast 375 432 37,000 -200 Level Atlanta Center
Mon 03:08:07 PM 33.1353 -87.3828 27° Northeast 375 432 36,600 -750 Descending Atlanta Center
Mon 03:09:07 PM 33.2369 -87.3222 26° Northeast 381 438 35,500 -800 Descending Atlanta Center
Mon 03:10:07 PM 33.3389 -87.2564 28° Northeast 400 460 35,000 -250 Descending Atlanta Center
Mon 03:11:07 PM 33.4408 -87.1953 27° Northeast 400 460 35,000 -750 Level Atlanta Center
Mon 03:12:07 PM 33.5386 -87.1242 31° Northeast 405 466 33,500 -1,000 Descending Atlanta Center
Mon 03:13:07 PM 33.6158 -87.0347 44° Northeast 411 473 33,000 -250 Descending Atlanta Center
Mon 03:14:07 PM 33.7106 -86.9156 46° Northeast 411 473 33,000  Level Atlanta Center
Mon 03:15:07 PM 33.7900 -86.8208 45° Northeast 400 460 33,000 -50 Level Atlanta Center
Mon 03:16:07 PM 33.8653 -86.7206 48° Northeast 400 460 32,900 -800 Descending Atlanta Center
Mon 03:17:07 PM 33.9511 -86.6156 45° Northeast 406 467 31,400 -1,700 Descending Atlanta Center
Mon 03:18:07 PM 34.0325 -86.5078 48° Northeast 421 484 29,500 -2,150 Descending Atlanta Center
Mon 03:19:07 PM 34.1158 -86.4050 46° Northeast 428 493 27,100 -2,400 Descending Atlanta Center
Mon 03:20:07 PM 34.1972 -86.2992 47° Northeast 428 493 24,700 -2,450 Descending Atlanta Center
Mon 03:21:07 PM 34.2764 -86.1981 47° Northeast 428 493 22,200 -2,400 Descending Atlanta Center
Mon 03:22:07 PM 34.3531 -86.0994 47° Northeast 411 473 19,900 -1,600 Descending Atlanta Center
Mon 03:23:07 PM 34.4256 -86.0031 48° Northeast 396 456 19,000 -1,250 Descending Atlanta Center
Mon 03:24:07 PM 34.5022 -85.9064 46° Northeast 391 450 17,400 -1,550 Descending Atlanta Center
Mon 03:25:07 PM 34.5619 -85.8297 47° Northeast 391 450 15,900 -1,800 Descending Atlanta Center
Mon 03:26:07 PM 34.6383 -85.7353 45° Northeast 376 433 13,800 -2,000 Descending Atlanta Center
Mon 03:27:07 PM 34.7125 -85.6561 41° Northeast 358 412 11,900 -1,900 Descending Atlanta Center
Mon 03:28:07 PM 34.7864 -85.5917 36° Northeast 338 389 10,000 -1,800 Descending Atlanta Center
Mon 03:29:07 PM 34.8517 -85.5322 37° Northeast 316 364 8,300 -1,800 Descending Atlanta Center
Mon 03:30:07 PM 34.9214 -85.4700 36° Northeast 304 350 6,400 -2,000 Descending Atlanta Center
Mon 03:31:07 PM 34.9783 -85.4128 39° Northeast 285 328 4,300 -1,400 Descending Atlanta Center
Mon 03:32:07 PM 35.0331 -85.3603 38° Northeast 265 305 3,600 -500 Descending Atlanta Center
Mon 03:33:07 PM 35.0775 -85.3078 44° Northeast 239 275 3,300 -650 Descending Atlanta Center
Mon 03:34:07 PM 35.0844 -85.2419 83° East 200 230 2,300 -1,000 Descending Atlanta Center
Mon 03:36:00 PM 35.0333 -85.2000 39° Northeast  Level FlightAware Approximate
Mon 03:43:00 PM 35.0352 -85.2036 39° Northeast  Level Estimated
Mon 03:44:00 PM 35.0333 -85.2000 39° Northeast  Level FlightAware Approximate

Login

Don't have an account? Register now (free) for customized features, flight alerts, and more!